createdAt,value
2023-05-24T00:02:13.832Z,154.83
2023-05-24T00:04:41.932Z,154.63
2023-05-24T00:07:09.924Z,155.23
2023-05-24T00:09:37.893Z,154.67
2023-05-24T00:12:06.543Z,154.90
2023-05-24T00:14:35.635Z,155.40
2023-05-24T00:17:03.748Z,154.73
2023-05-24T00:19:33.107Z,154.83
2023-05-24T00:22:00.983Z,155.40
2023-05-24T00:24:29.229Z,154.77
2023-05-24T00:26:57.665Z,155.17
2023-05-24T00:29:25.537Z,155.73
2023-05-24T00:31:54.648Z,154.97
2023-05-24T00:34:22.632Z,155.00
2023-05-24T00:36:52.023Z,154.03
2023-05-24T00:39:19.926Z,154.67
2023-05-24T00:41:47.810Z,154.30
2023-05-24T00:44:15.825Z,154.73
2023-05-24T00:46:43.910Z,154.17
2023-05-24T00:49:11.949Z,152.70
2023-05-24T00:51:39.942Z,153.87
2023-05-24T00:54:09.396Z,152.77
2023-05-24T00:56:37.283Z,153.03
2023-05-24T00:59:05.773Z,152.07
2023-05-24T01:01:33.729Z,152.70
2023-05-24T01:04:02.225Z,152.07
2023-05-24T01:06:33.698Z,152.30
2023-05-24T01:09:15.048Z,152.97
2023-05-24T01:11:56.325Z,152.80
2023-05-24T01:14:30.954Z,152.77
2023-05-24T01:17:09.335Z,153.60
2023-05-24T01:19:49.607Z,153.03
2023-05-24T01:22:49.003Z,153.40
2023-05-24T01:25:33.665Z,154.27
2023-05-24T01:28:04.176Z,153.83
2023-05-24T01:30:32.329Z,154.40
2023-05-24T01:33:00.955Z,154.03
2023-05-24T01:35:28.839Z,153.83
2023-05-24T01:37:56.686Z,154.50
2023-05-24T01:40:25.167Z,154.00
2023-05-24T01:43:00.480Z,153.40
2023-05-24T01:45:36.512Z,154.03
2023-05-24T01:48:18.735Z,154.43
2023-05-24T01:50:50.695Z,154.50
2023-05-24T01:53:21.025Z,153.60
2023-05-24T01:55:52.462Z,154.50
2023-05-24T01:58:23.579Z,154.30
2023-05-24T02:00:53.757Z,154.60
2023-05-24T02:03:22.485Z,154.47
2023-05-24T02:05:50.476Z,153.90
2023-05-24T02:08:18.491Z,154.17
2023-05-24T02:10:46.533Z,154.40
2023-05-24T02:13:16.167Z,153.43
2023-05-24T02:15:44.790Z,154.47
2023-05-24T02:18:18.566Z,154.23
2023-05-24T02:20:46.910Z,154.57
2023-05-24T02:23:14.862Z,155.00
2023-05-24T02:25:42.748Z,154.33
2023-05-24T02:28:11.050Z,154.10
2023-05-24T02:30:39.688Z,154.57
2023-05-24T02:33:07.801Z,154.40
2023-05-24T02:35:37.011Z,153.80
2023-05-24T02:38:06.496Z,153.73
2023-05-24T02:40:34.634Z,153.40
2023-05-24T02:43:02.523Z,153.77
2023-05-24T02:45:30.400Z,154.03
2023-05-24T02:47:58.391Z,154.27
2023-05-24T02:50:26.259Z,154.30
2023-05-24T02:52:55.530Z,153.73
2023-05-24T02:55:26.845Z,153.50
2023-05-24T02:57:55.359Z,153.23
2023-05-24T03:00:23.444Z,153.83
2023-05-24T03:02:52.462Z,154.47
2023-05-24T03:05:20.522Z,152.87
2023-05-24T03:07:48.457Z,154.30
2023-05-24T03:10:18.524Z,154.63
2023-05-24T03:12:46.427Z,153.87
2023-05-24T03:15:14.740Z,154.43
2023-05-24T03:17:42.646Z,154.23
2023-05-24T03:20:11.536Z,154.03
2023-05-24T03:22:39.457Z,153.90
2023-05-24T03:25:08.790Z,154.07
2023-05-24T03:27:38.280Z,154.23
2023-05-24T03:30:07.396Z,153.27
2023-05-24T03:32:42.455Z,153.87
2023-05-24T03:35:11.956Z,153.37
2023-05-24T03:37:40.056Z,153.37
2023-05-24T03:40:09.186Z,153.63
2023-05-24T03:42:58.675Z,152.90
2023-05-24T03:45:46.897Z,152.47
2023-05-24T03:48:15.180Z,153.47
2023-05-24T03:50:43.407Z,153.33
2023-05-24T03:53:12.516Z,153.13
2023-05-24T03:55:40.593Z,153.53
2023-05-24T03:58:09.881Z,153.57
2023-05-24T04:00:37.722Z,153.67
2023-05-24T04:03:06.695Z,152.50
2023-05-24T04:05:34.748Z,152.47
2023-05-24T04:08:02.851Z,152.97
2023-05-24T04:10:30.751Z,152.90
2023-05-24T04:12:58.756Z,152.53
2023-05-24T04:15:28.901Z,152.77
2023-05-24T04:17:57.182Z,152.60
2023-05-24T04:20:25.721Z,153.57
2023-05-24T04:22:54.010Z,153.10
2023-05-24T04:25:21.998Z,152.93
2023-05-24T04:27:50.234Z,153.03
2023-05-24T04:30:18.311Z,153.80
2023-05-24T04:32:48.436Z,153.47
2023-05-24T04:35:16.688Z,152.77
2023-05-24T04:37:46.590Z,153.00
2023-05-24T04:40:14.774Z,153.30
2023-05-24T04:42:42.677Z,153.47
2023-05-24T04:45:11.406Z,153.70
2023-05-24T04:47:39.338Z,153.60
2023-05-24T04:50:09.477Z,153.77
2023-05-24T04:52:37.392Z,153.03
2023-05-24T04:55:07.361Z,153.47
2023-05-24T04:57:35.240Z,153.53
2023-05-24T05:00:04.612Z,152.77
2023-05-24T05:02:33.370Z,153.23
2023-05-24T05:05:01.319Z,154.13
2023-05-24T05:07:30.586Z,153.60
2023-05-24T05:09:58.470Z,154.27
2023-05-24T05:12:26.397Z,153.17
2023-05-24T05:14:54.402Z,153.83
2023-05-24T05:17:22.442Z,154.37
2023-05-24T05:19:50.330Z,154.23
2023-05-24T05:22:18.252Z,153.73
2023-05-24T05:24:47.458Z,154.50
2023-05-24T05:27:15.388Z,154.10
2023-05-24T05:29:43.277Z,154.07
2023-05-24T05:32:11.400Z,154.67
2023-05-24T05:34:39.296Z,153.83
2023-05-24T05:37:07.144Z,154.53
2023-05-24T05:39:34.993Z,154.53
2023-05-24T05:42:04.236Z,154.10
2023-05-24T05:44:32.124Z,154.33
2023-05-24T05:46:59.974Z,154.13
2023-05-24T05:49:27.909Z,154.83
2023-05-24T05:51:55.793Z,154.23
2023-05-24T05:54:23.871Z,154.50
2023-05-24T05:56:52.216Z,154.93
2023-05-24T05:59:21.451Z,154.77
2023-05-24T06:01:49.636Z,154.07
2023-05-24T06:04:18.053Z,154.03
2023-05-24T06:06:49.444Z,154.47
2023-05-24T06:09:17.599Z,153.97
2023-05-24T06:11:45.799Z,154.37
2023-05-24T06:14:18.032Z,153.73
2023-05-24T06:16:47.814Z,153.30
2023-05-24T06:19:16.487Z,152.70
2023-05-24T06:21:47.685Z,153.90
2023-05-24T06:24:17.864Z,153.73
2023-05-24T06:26:45.716Z,153.10
2023-05-24T06:29:13.869Z,153.20
2023-05-24T06:31:43.340Z,154.20
2023-05-24T06:34:12.764Z,153.13
2023-05-24T06:36:43.148Z,152.73
2023-05-24T06:39:11.379Z,153.17
2023-05-24T06:41:39.592Z,152.90
2023-05-24T06:44:07.791Z,153.47
2023-05-24T06:46:35.832Z,153.10
2023-05-24T06:49:04.371Z,152.83
2023-05-24T06:51:34.444Z,153.70
2023-05-24T06:54:02.474Z,153.93
2023-05-24T06:56:30.382Z,154.30
2023-05-24T06:58:58.243Z,153.80
2023-05-24T07:01:26.272Z,153.47
2023-05-24T07:03:54.274Z,152.97
2023-05-24T07:06:22.249Z,153.17
2023-05-24T07:08:51.492Z,153.77
2023-05-24T07:11:19.559Z,152.97
2023-05-24T07:13:47.424Z,153.03
2023-05-24T07:16:15.422Z,153.87
2023-05-24T07:18:43.434Z,153.10
2023-05-24T07:21:11.304Z,153.53
2023-05-24T07:23:39.501Z,153.80
2023-05-24T07:26:08.970Z,153.37
2023-05-24T07:28:37.813Z,154.23
2023-05-24T07:31:08.167Z,153.30
2023-05-24T07:33:37.458Z,153.73
2023-05-24T07:36:06.863Z,153.47
2023-05-24T07:38:35.202Z,153.50
2023-05-24T07:41:04.603Z,154.53
2023-05-24T07:43:33.888Z,154.00
2023-05-24T07:46:01.938Z,154.17
2023-05-24T07:48:29.844Z,154.37
2023-05-24T07:50:57.746Z,154.47
2023-05-24T07:53:25.834Z,154.30
2023-05-24T07:55:53.707Z,154.53
2023-05-24T07:58:21.591Z,154.67
2023-05-24T08:00:50.863Z,153.70
2023-05-24T08:03:18.861Z,154.13
2023-05-24T08:05:47.020Z,154.67
2023-05-24T08:08:15.588Z,154.00
2023-05-24T08:10:43.433Z,155.00
2023-05-24T08:13:11.508Z,154.83
2023-05-24T08:15:39.357Z,154.37
2023-05-24T08:18:09.465Z,154.97
2023-05-24T08:20:37.654Z,154.23
2023-05-24T08:23:05.725Z,154.30
2023-05-24T08:25:33.701Z,154.33
2023-05-24T08:28:01.925Z,153.90
2023-05-24T08:30:30.597Z,153.90
2023-05-24T08:32:59.113Z,154.90
2023-05-24T08:39:21.984Z,154.47
2023-05-24T08:42:07.369Z,155.00
2023-05-24T08:44:42.243Z,154.50
2023-05-24T08:47:11.183Z,154.97
2023-05-24T08:49:39.264Z,154.47
2023-05-24T08:52:08.471Z,154.50
2023-05-24T08:54:38.481Z,154.40
2023-05-24T08:57:07.643Z,155.00
2023-05-24T08:59:35.594Z,154.33
2023-05-24T09:02:05.598Z,155.40
2023-05-24T09:04:34.780Z,155.10
2023-05-24T09:07:02.841Z,155.10
2023-05-24T09:09:31.919Z,155.23
2023-05-24T09:12:05.311Z,154.37
2023-05-24T09:14:33.492Z,155.47
2023-05-24T09:17:01.711Z,155.33
2023-05-24T09:19:29.695Z,154.80
2023-05-24T09:21:58.663Z,155.00
2023-05-24T09:24:26.551Z,154.37
2023-05-24T09:26:54.431Z,154.30
2023-05-24T09:29:25.444Z,154.10
2023-05-24T09:31:57.983Z,154.50
2023-05-24T09:34:25.926Z,153.70
2023-05-24T09:36:55.038Z,154.50
2023-05-24T09:39:23.132Z,154.30
2023-05-24T09:41:57.245Z,155.13
2023-05-24T09:44:28.247Z,155.17
2023-05-24T09:47:04.863Z,154.53
2023-05-24T09:49:32.847Z,154.50
2023-05-24T09:52:00.828Z,155.33
2023-05-24T09:54:29.052Z,155.03
2023-05-24T09:56:56.962Z,154.90
2023-05-24T09:59:27.198Z,154.53
2023-05-24T10:02:10.230Z,154.27
2023-05-24T10:04:38.173Z,154.07
2023-05-24T10:07:09.010Z,154.23
2023-05-24T10:09:37.219Z,154.57
2023-05-24T10:12:07.088Z,154.93
2023-05-24T10:14:37.545Z,155.07
2023-05-24T10:17:06.605Z,155.03
2023-05-24T10:19:35.063Z,154.93
2023-05-24T10:22:08.828Z,154.83
2023-05-24T10:24:39.940Z,155.87
2023-05-24T10:27:11.006Z,155.10
2023-05-24T10:29:53.406Z,155.30
2023-05-24T10:32:25.125Z,155.23
2023-05-24T10:34:54.066Z,155.13
2023-05-24T10:37:22.318Z,155.27
2023-05-24T10:39:50.932Z,155.23
2023-05-24T10:42:18.920Z,154.63
2023-05-24T10:44:48.148Z,154.30
2023-05-24T10:47:17.027Z,153.90
2023-05-24T10:49:52.683Z,154.40
2023-05-24T10:52:20.859Z,154.37
2023-05-24T10:55:05.724Z,154.60
2023-05-24T10:57:33.965Z,153.83
2023-05-24T11:00:36.234Z,154.17
2023-05-24T11:03:10.555Z,154.07
2023-05-24T11:05:52.729Z,154.17
2023-05-24T11:08:30.952Z,154.40
2023-05-24T11:11:24.563Z,154.67
2023-05-24T11:13:58.068Z,154.60
2023-05-24T11:16:38.209Z,154.13
2023-05-24T11:19:17.310Z,154.40
2023-05-24T11:21:47.071Z,154.57
2023-05-24T11:24:15.020Z,154.20
2023-05-24T11:26:42.882Z,154.53
2023-05-24T11:29:10.812Z,154.90
2023-05-24T11:31:43.121Z,155.20
2023-05-24T11:34:11.783Z,154.37
2023-05-24T11:36:41.534Z,154.87
2023-05-24T11:39:10.029Z,155.53
2023-05-24T11:41:39.676Z,155.10
2023-05-24T11:44:11.913Z,155.33
2023-05-24T11:46:41.367Z,155.77
2023-05-24T11:49:14.243Z,155.50
2023-05-24T11:51:44.125Z,154.87
2023-05-24T11:54:12.588Z,155.00
2023-05-24T11:56:40.516Z,155.43
2023-05-24T11:59:16.452Z,154.87
2023-05-24T12:01:45.080Z,154.70
2023-05-24T12:04:13.438Z,154.67
2023-05-24T12:06:44.267Z,154.23
2023-05-24T12:09:14.738Z,154.67
2023-05-24T12:11:44.953Z,155.07
2023-05-24T12:14:14.516Z,155.13
2023-05-24T12:16:43.698Z,154.90
2023-05-24T12:19:31.826Z,154.70
2023-05-24T12:22:04.914Z,154.37
2023-05-24T12:24:32.984Z,155.40
2023-05-24T12:27:03.100Z,154.33
2023-05-24T12:29:35.453Z,155.20
2023-05-24T12:32:03.765Z,155.03
2023-05-24T12:34:31.722Z,154.67
2023-05-24T12:37:03.476Z,154.67
2023-05-24T12:39:33.978Z,154.23
2023-05-24T12:42:02.731Z,154.80
2023-05-24T12:44:32.298Z,155.00
2023-05-24T12:47:03.497Z,154.57
2023-05-24T12:49:32.546Z,154.93
2023-05-24T12:52:02.728Z,154.80
2023-05-24T12:54:30.869Z,155.03
2023-05-24T12:57:02.383Z,154.93
2023-05-24T12:59:30.444Z,155.23
2023-05-24T13:01:58.699Z,155.27
2023-05-24T13:04:27.489Z,156.30
2023-05-24T13:06:56.320Z,155.53
2023-05-24T13:09:26.217Z,156.07
2023-05-24T13:11:55.083Z,155.70
2023-05-24T13:14:23.143Z,155.67
2023-05-24T13:16:51.173Z,155.50
2023-05-24T13:19:19.259Z,156.67
2023-05-24T13:21:47.199Z,156.13
2023-05-24T13:24:17.353Z,155.87
2023-05-24T13:26:46.883Z,155.07
2023-05-24T13:31:45.727Z,155.53
2023-05-24T13:34:13.832Z,155.37
2023-05-24T13:36:42.044Z,155.03
2023-05-24T13:39:15.692Z,154.77
2023-05-24T13:41:46.133Z,155.57
2023-05-24T13:44:14.612Z,154.83
2023-05-24T13:46:43.377Z,155.03
2023-05-24T13:49:12.237Z,155.77
2023-05-24T13:51:40.432Z,155.73
2023-05-24T13:54:08.448Z,155.77
2023-05-24T13:56:37.138Z,155.63
2023-05-24T13:59:07.573Z,154.87
2023-05-24T14:01:37.517Z,155.83
2023-05-24T14:04:06.844Z,155.93
2023-05-24T14:06:37.421Z,155.80
2023-05-24T14:09:07.887Z,155.97
2023-05-24T14:11:36.717Z,155.47
2023-05-24T14:16:37.340Z,155.37
2023-05-24T14:19:05.491Z,155.73
2023-05-24T14:21:33.436Z,155.43
2023-05-24T14:24:01.316Z,155.87
2023-05-24T14:26:29.301Z,155.97
2023-05-24T14:28:57.246Z,156.03
2023-05-24T14:31:26.557Z,155.73
2023-05-24T14:33:54.534Z,156.37
2023-05-24T14:36:22.399Z,155.80
2023-05-24T14:38:50.270Z,156.33
2023-05-24T14:41:18.202Z,155.97
2023-05-24T14:43:46.196Z,155.90
2023-05-24T14:46:14.132Z,156.47
2023-05-24T14:48:43.419Z,156.23
2023-05-24T14:51:11.320Z,156.37
2023-05-24T14:53:39.176Z,156.37
2023-05-24T14:56:08.963Z,155.80
2023-05-24T14:58:37.066Z,156.17
2023-05-24T15:01:05.059Z,155.87
2023-05-24T15:03:33.230Z,155.47
2023-05-24T15:06:02.897Z,155.50
2023-05-24T15:08:31.214Z,156.17
2023-05-24T15:10:59.381Z,156.10
2023-05-24T15:13:27.268Z,156.27
2023-05-24T15:15:56.616Z,155.67
2023-05-24T15:18:27.865Z,156.30
2023-05-24T15:20:56.270Z,155.97
2023-05-24T15:23:25.832Z,156.33
2023-05-24T15:25:53.773Z,155.97
2023-05-24T15:28:22.459Z,155.67
2023-05-24T15:30:52.239Z,156.63
2023-05-24T15:33:20.153Z,156.27
2023-05-24T15:35:48.034Z,156.33
2023-05-24T15:38:17.596Z,156.17
2023-05-24T15:40:47.199Z,155.80
2023-05-24T15:43:15.581Z,156.37
2023-05-24T15:45:44.636Z,156.33
2023-05-24T15:48:12.984Z,156.63
2023-05-24T15:50:53.987Z,156.37
2023-05-24T15:53:28.989Z,157.03
2023-05-24T15:55:58.365Z,156.60
2023-05-24T15:58:26.387Z,156.43
2023-05-24T16:00:54.410Z,156.77
2023-05-24T16:03:22.456Z,156.33
2023-05-24T16:05:50.535Z,156.30
2023-05-24T16:08:18.729Z,155.80
2023-05-24T16:10:46.664Z,156.27
2023-05-24T16:13:16.088Z,156.30
2023-05-24T16:15:47.525Z,156.43
2023-05-24T16:18:18.031Z,155.97
2023-05-24T16:20:46.786Z,156.57
2023-05-24T16:23:14.905Z,156.10
2023-05-24T16:25:42.917Z,156.43
2023-05-24T16:28:10.850Z,156.37
2023-05-24T16:30:41.001Z,156.57
2023-05-24T16:33:09.071Z,155.60
2023-05-24T16:35:37.534Z,156.60
2023-05-24T16:38:05.420Z,155.97
2023-05-24T16:40:33.368Z,156.33
2023-05-24T16:43:01.222Z,155.90
2023-05-24T16:45:29.111Z,155.53
2023-05-24T16:47:59.033Z,156.13
2023-05-24T16:50:26.975Z,155.97
2023-05-24T16:52:54.863Z,155.57
2023-05-24T16:55:22.795Z,155.13
2023-05-24T16:57:51.620Z,155.63
2023-05-24T17:00:20.187Z,156.33
2023-05-24T17:02:48.206Z,156.03
2023-05-24T17:05:17.645Z,156.00
2023-05-24T17:07:46.063Z,156.47
2023-05-24T17:10:13.963Z,156.20
2023-05-24T17:12:42.272Z,155.63
2023-05-24T17:15:11.106Z,155.77
2023-05-24T17:17:39.071Z,155.73
2023-05-24T17:20:07.968Z,155.90
2023-05-24T17:22:37.276Z,155.93
2023-05-24T17:25:05.708Z,155.20
2023-05-24T17:27:33.645Z,155.73
2023-05-24T17:30:01.564Z,155.17
2023-05-24T17:32:29.565Z,155.77
2023-05-24T17:34:57.510Z,155.73
2023-05-24T17:37:25.541Z,155.43
2023-05-24T17:39:54.734Z,155.40
2023-05-24T17:42:22.797Z,155.47
2023-05-24T17:44:50.641Z,154.80
2023-05-24T17:47:18.574Z,155.13
2023-05-24T17:49:46.495Z,156.23
2023-05-24T17:52:15.000Z,155.67
2023-05-24T17:54:42.940Z,155.33
2023-05-24T17:57:12.231Z,156.23
2023-05-24T17:59:40.087Z,155.73
2023-05-24T18:02:08.130Z,155.60
2023-05-24T18:04:36.035Z,155.43
2023-05-24T18:07:03.942Z,155.80
2023-05-24T18:09:33.015Z,155.77
2023-05-24T18:12:01.204Z,155.50
2023-05-24T18:14:32.044Z,155.20
2023-05-24T18:17:00.166Z,155.23
2023-05-24T18:19:28.152Z,154.67
2023-05-24T18:21:56.049Z,155.87
2023-05-24T18:24:23.916Z,155.60
2023-05-24T18:26:51.822Z,156.27
2023-05-24T18:29:19.679Z,155.33
2023-05-24T18:31:49.539Z,155.07
2023-05-24T18:34:17.718Z,155.20
2023-05-24T18:36:45.716Z,154.90
2023-05-24T18:39:13.600Z,155.13
2023-05-24T18:41:41.646Z,154.73
2023-05-24T18:44:09.634Z,154.83
2023-05-24T18:46:37.594Z,154.37
2023-05-24T18:49:10.793Z,154.90
2023-05-24T18:51:39.136Z,155.83
2023-05-24T18:54:07.290Z,155.03
2023-05-24T18:56:35.227Z,155.17
2023-05-24T18:59:03.103Z,155.07
2023-05-24T19:01:31.082Z,154.40
2023-05-24T19:03:59.003Z,154.80
2023-05-24T19:06:28.765Z,154.23
2023-05-24T19:08:56.903Z,154.43
2023-05-24T19:11:24.784Z,154.33
2023-05-24T19:13:52.700Z,154.33
2023-05-24T19:16:21.177Z,154.43
2023-05-24T19:18:49.116Z,154.37
2023-05-24T19:21:17.165Z,155.10
2023-05-24T19:23:46.866Z,154.03
2023-05-24T19:26:17.868Z,154.27
2023-05-24T19:28:50.357Z,154.07
2023-05-24T19:31:18.340Z,154.83
2023-05-24T19:33:59.371Z,154.63
2023-05-24T19:36:30.168Z,154.67
2023-05-24T19:38:59.612Z,154.43
2023-05-24T19:41:29.467Z,154.20
2023-05-24T19:43:58.489Z,154.23
2023-05-24T19:46:26.806Z,153.67
2023-05-24T19:48:54.932Z,154.33
2023-05-24T19:51:23.122Z,153.90
2023-05-24T19:53:51.086Z,153.20
2023-05-24T19:56:20.614Z,153.77
2023-05-24T19:58:48.618Z,153.93
2023-05-24T20:01:16.706Z,153.30
2023-05-24T20:03:48.330Z,154.57
2023-05-24T20:06:16.877Z,154.13
2023-05-24T20:08:45.465Z,154.57
2023-05-24T20:11:14.253Z,154.20
2023-05-24T20:13:43.493Z,154.03
2023-05-24T20:16:11.463Z,154.37
2023-05-24T20:18:39.350Z,154.73
2023-05-24T20:21:07.278Z,154.23
2023-05-24T20:23:35.144Z,154.13
2023-05-24T20:26:03.098Z,155.07
2023-05-24T20:28:32.005Z,154.37
2023-05-24T20:31:01.687Z,154.37
2023-05-24T20:33:29.722Z,154.90
2023-05-24T20:35:59.337Z,154.60
2023-05-24T20:38:27.212Z,154.90
2023-05-24T20:40:55.175Z,155.37
2023-05-24T20:43:23.041Z,154.20
2023-05-24T20:45:50.935Z,154.67
2023-05-24T20:48:20.192Z,153.87
2023-05-24T20:50:48.129Z,154.27
2023-05-24T20:53:16.206Z,154.20
2023-05-24T20:55:44.374Z,154.53
2023-05-24T20:58:12.382Z,154.57
2023-05-24T21:00:40.759Z,154.47
2023-05-24T21:03:10.187Z,154.83
2023-05-24T21:05:40.176Z,154.27
2023-05-24T21:08:08.383Z,154.50
2023-05-24T21:10:37.970Z,154.50
2023-05-24T21:13:05.977Z,155.13
2023-05-24T21:15:33.908Z,154.53
2023-05-24T21:18:01.904Z,154.97
2023-05-24T21:20:29.946Z,154.73
2023-05-24T21:22:59.221Z,154.67
2023-05-24T21:25:27.092Z,154.13
2023-05-24T21:27:55.278Z,154.53
2023-05-24T21:30:23.271Z,154.70
2023-05-24T21:32:51.237Z,154.87
2023-05-24T21:35:19.116Z,154.23
2023-05-24T21:37:46.970Z,154.87
2023-05-24T21:40:16.210Z,155.60
2023-05-24T21:42:44.225Z,154.00
2023-05-24T21:45:14.055Z,154.73
2023-05-24T21:47:42.727Z,155.40
2023-05-24T21:50:11.347Z,154.90
2023-05-24T21:52:39.376Z,154.70
2023-05-24T21:55:08.030Z,154.77
2023-05-24T21:57:37.254Z,154.97
2023-05-24T22:00:06.193Z,154.53
2023-05-24T22:02:34.422Z,154.50
2023-05-24T22:05:04.984Z,154.47
2023-05-24T22:07:33.012Z,154.40
2023-05-24T22:10:00.926Z,153.70
2023-05-24T22:12:28.800Z,154.37
2023-05-24T22:14:58.009Z,155.23
2023-05-24T22:17:29.277Z,153.37
2023-05-24T22:19:57.347Z,154.17
2023-05-24T22:22:25.237Z,153.83
2023-05-24T22:24:53.106Z,154.00
2023-05-24T22:27:21.185Z,153.90
2023-05-24T22:29:49.215Z,153.60
2023-05-24T22:32:18.741Z,154.70
2023-05-24T22:34:47.005Z,154.23
2023-05-24T22:37:16.548Z,154.10
2023-05-24T22:39:45.006Z,153.60
2023-05-24T22:42:13.081Z,154.00
2023-05-24T22:44:40.952Z,154.07
2023-05-24T22:47:08.950Z,154.50
2023-05-24T22:49:38.131Z,153.90
2023-05-24T22:52:06.943Z,154.17
2023-05-24T22:54:34.838Z,154.17
2023-05-24T22:57:02.786Z,154.37
2023-05-24T22:59:32.509Z,154.00
2023-05-24T23:02:00.701Z,153.60
2023-05-24T23:04:28.871Z,153.63
2023-05-24T23:06:58.132Z,154.07
2023-05-24T23:09:33.820Z,153.87
2023-05-24T23:12:02.198Z,153.37
2023-05-24T23:14:31.119Z,154.13
2023-05-24T23:17:02.343Z,153.77
2023-05-24T23:19:30.956Z,153.63
2023-05-24T23:22:00.423Z,153.80
2023-05-24T23:24:28.314Z,154.33
2023-05-24T23:26:56.940Z,153.87
2023-05-24T23:29:24.869Z,154.33
2023-05-24T23:31:52.783Z,153.93
2023-05-24T23:34:20.690Z,154.30
2023-05-24T23:36:48.580Z,153.90
2023-05-24T23:39:17.849Z,154.30
2023-05-24T23:41:45.986Z,153.70
2023-05-24T23:44:13.845Z,153.47
2023-05-24T23:46:42.307Z,153.57
2023-05-24T23:49:10.335Z,153.73
2023-05-24T23:51:38.257Z,154.60
2023-05-24T23:54:06.612Z,154.13
2023-05-24T23:56:36.810Z,153.63
2023-05-24T23:59:04.745Z,154.17
